createdAt,value
2022-11-29T00:01:34.494Z,8.30
2022-11-29T00:04:02.935Z,8.67
2022-11-29T00:06:32.202Z,8.30
2022-11-29T00:09:01.350Z,8.63
2022-11-29T00:11:51.355Z,9.40
2022-11-29T00:14:20.507Z,8.43
2022-11-29T00:16:51.950Z,8.83
2022-11-29T00:19:20.481Z,8.70
2022-11-29T00:21:48.728Z,8.97
2022-11-29T00:24:17.322Z,8.40
2022-11-29T00:26:47.171Z,9.13
2022-11-29T00:29:15.543Z,8.67
2022-11-29T00:31:44.157Z,8.43
2022-11-29T00:34:12.630Z,8.37
2022-11-29T00:36:40.975Z,8.30
2022-11-29T00:39:11.977Z,9.00
2022-11-29T00:41:40.553Z,9.10
2022-11-29T00:44:13.941Z,9.00
2022-11-29T00:46:45.152Z,8.67
2022-11-29T00:49:13.408Z,8.73
2022-11-29T00:51:42.026Z,8.77
2022-11-29T00:54:10.344Z,8.50
2022-11-29T00:56:38.678Z,7.77
2022-11-29T00:59:07.041Z,8.30
2022-11-29T01:01:36.889Z,8.40
2022-11-29T01:04:05.629Z,9.20
2022-11-29T01:06:34.241Z,8.57
2022-11-29T01:09:02.487Z,9.07
2022-11-29T01:11:30.922Z,8.83
2022-11-29T01:14:00.023Z,8.57
2022-11-29T01:16:28.440Z,9.17
2022-11-29T01:18:58.240Z,9.53
2022-11-29T01:21:26.838Z,9.00
2022-11-29T01:23:55.108Z,9.70
2022-11-29T01:26:24.866Z,8.67
2022-11-29T01:28:54.159Z,8.63
2022-11-29T01:31:23.724Z,8.83
2022-11-29T01:33:54.543Z,8.93
2022-11-29T01:36:24.292Z,9.17
2022-11-29T01:38:52.631Z,9.20
2022-11-29T01:41:22.188Z,8.97
2022-11-29T01:44:02.202Z,8.87
2022-11-29T01:46:31.440Z,9.40
2022-11-29T01:49:02.239Z,10.27
2022-11-29T01:51:31.913Z,9.40
2022-11-29T01:54:00.323Z,8.90
2022-11-29T01:56:29.343Z,8.70
2022-11-29T01:58:57.641Z,8.87
2022-11-29T02:01:26.442Z,8.53
2022-11-29T02:03:55.001Z,8.77
2022-11-29T02:06:23.271Z,8.50
2022-11-29T02:08:52.983Z,9.10
2022-11-29T02:12:02.713Z,8.07
2022-11-29T02:14:49.754Z,8.60
2022-11-29T02:17:22.153Z,8.23
2022-11-29T02:20:23.926Z,7.97
2022-11-29T02:22:53.776Z,7.63
2022-11-29T02:25:45.695Z,7.60
2022-11-29T02:28:47.024Z,7.37
2022-11-29T02:31:30.513Z,7.63
2022-11-29T02:34:26.280Z,6.93
2022-11-29T02:37:05.999Z,8.13
2022-11-29T02:40:23.824Z,6.67
2022-11-29T02:43:08.468Z,7.20
2022-11-29T02:45:51.500Z,7.27
2022-11-29T02:48:29.983Z,7.43
2022-11-29T02:51:02.346Z,7.97
2022-11-29T02:53:33.601Z,8.07
2022-11-29T02:56:06.084Z,7.97
2022-11-29T02:58:38.387Z,8.73
2022-11-29T03:01:10.636Z,8.83
2022-11-29T03:03:40.651Z,8.23
2022-11-29T03:06:16.655Z,7.93
2022-11-29T03:08:48.161Z,7.80
2022-11-29T03:11:21.669Z,8.40
2022-11-29T03:13:53.621Z,8.13
2022-11-29T03:16:30.259Z,7.93
2022-11-29T03:19:06.672Z,7.50
2022-11-29T03:21:42.975Z,8.13
2022-11-29T03:24:15.108Z,8.20
2022-11-29T03:26:45.509Z,8.00
2022-11-29T03:29:17.313Z,8.17
2022-11-29T03:31:47.553Z,7.07
2022-11-29T03:34:18.742Z,7.40
2022-11-29T03:36:51.264Z,6.53
2022-11-29T03:39:20.762Z,6.80
2022-11-29T03:41:50.785Z,6.80
2022-11-29T03:44:19.879Z,7.17
2022-11-29T03:46:51.740Z,6.50
2022-11-29T03:49:24.095Z,6.40
2022-11-29T03:52:00.324Z,7.07
2022-11-29T03:54:30.074Z,6.70
2022-11-29T03:56:58.915Z,6.97
2022-11-29T03:59:35.432Z,7.07
2022-11-29T04:02:27.412Z,7.03
2022-11-29T04:05:21.449Z,7.23
2022-11-29T04:08:01.585Z,7.13
2022-11-29T04:10:59.329Z,7.13
2022-11-29T04:13:53.613Z,7.50
2022-11-29T04:16:55.573Z,7.73
2022-11-29T04:19:39.794Z,8.13
2022-11-29T04:22:34.364Z,6.43
2022-11-29T04:25:31.154Z,7.50
2022-11-29T04:28:20.971Z,7.67
2022-11-29T04:30:53.179Z,7.30
2022-11-29T04:33:49.691Z,8.00
2022-11-29T04:36:41.299Z,8.30
2022-11-29T04:39:31.469Z,8.53
2022-11-29T04:42:29.204Z,8.20
2022-11-29T04:45:07.682Z,7.87
2022-11-29T04:47:53.296Z,8.10
2022-11-29T04:50:41.692Z,7.27
2022-11-29T04:53:31.531Z,7.30
2022-11-29T04:56:06.921Z,8.40
2022-11-29T04:58:38.967Z,7.57
2022-11-29T05:01:13.534Z,7.97
2022-11-29T05:03:45.756Z,7.40
2022-11-29T05:06:20.936Z,8.07
2022-11-29T05:08:53.056Z,7.30
2022-11-29T05:11:27.043Z,7.73
2022-11-29T05:13:58.436Z,7.33
2022-11-29T05:16:48.430Z,8.87
2022-11-29T05:19:34.755Z,7.63
2022-11-29T05:22:08.535Z,7.50
2022-11-29T05:24:52.460Z,7.23
2022-11-29T05:27:27.072Z,7.67
2022-11-29T05:29:59.652Z,6.37
2022-11-29T05:32:31.217Z,7.23
2022-11-29T05:35:32.564Z,7.10
2022-11-29T05:38:03.762Z,7.30
2022-11-29T05:40:45.506Z,7.00
2022-11-29T05:43:24.072Z,7.27
2022-11-29T05:45:55.828Z,7.23
2022-11-29T05:48:26.477Z,7.10
2022-11-29T05:51:02.319Z,7.30
2022-11-29T05:53:32.677Z,7.37
2022-11-29T05:56:04.000Z,8.03
2022-11-29T05:58:38.539Z,7.53
2022-11-29T06:01:18.052Z,7.10
2022-11-29T06:03:52.290Z,7.03
2022-11-29T06:06:23.868Z,7.03
2022-11-29T06:08:53.735Z,6.23
2022-11-29T06:11:24.840Z,6.27
2022-11-29T06:14:01.646Z,7.10
2022-11-29T06:16:48.192Z,7.53
2022-11-29T06:19:44.845Z,7.33
2022-11-29T06:22:22.231Z,6.80
2022-11-29T06:24:57.076Z,6.50
2022-11-29T06:27:38.421Z,6.80
2022-11-29T06:30:09.373Z,6.77
2022-11-29T06:32:43.268Z,7.13
2022-11-29T06:35:13.945Z,6.97
2022-11-29T06:37:43.193Z,7.53
2022-11-29T06:40:12.380Z,8.70
2022-11-29T06:42:40.724Z,7.30
2022-11-29T06:45:11.290Z,7.30
2022-11-29T06:47:42.632Z,7.10
2022-11-29T06:50:22.809Z,8.73
2022-11-29T06:52:54.628Z,8.33
2022-11-29T06:55:25.676Z,7.30
2022-11-29T06:58:01.932Z,6.70
2022-11-29T07:00:34.032Z,7.20
2022-11-29T07:03:20.296Z,7.07
2022-11-29T07:05:49.363Z,6.77
2022-11-29T07:08:19.905Z,7.30
2022-11-29T07:10:50.174Z,7.10
2022-11-29T07:13:19.182Z,7.33
2022-11-29T07:15:51.754Z,7.73
2022-11-29T07:18:24.979Z,7.20
2022-11-29T07:20:58.424Z,7.50
2022-11-29T07:23:30.736Z,7.80
2022-11-29T07:26:05.223Z,7.33
2022-11-29T07:28:40.890Z,7.73
2022-11-29T07:31:12.792Z,7.23
2022-11-29T07:33:51.137Z,7.70
2022-11-29T07:36:23.263Z,7.50
2022-11-29T07:38:57.134Z,7.73
2022-11-29T07:41:28.845Z,8.50
2022-11-29T07:44:00.500Z,7.77
2022-11-29T07:46:29.263Z,8.07
2022-11-29T07:48:59.384Z,7.73
2022-11-29T07:51:27.695Z,8.00
2022-11-29T07:53:55.997Z,7.27
2022-11-29T07:56:24.332Z,8.80
2022-11-29T07:58:52.586Z,7.73
2022-11-29T08:01:21.251Z,7.47
2022-11-29T08:03:49.563Z,8.47
2022-11-29T08:06:24.280Z,7.67
2022-11-29T08:08:52.566Z,7.17
2022-11-29T08:11:20.860Z,7.87
2022-11-29T08:13:49.149Z,8.70
2022-11-29T08:16:18.661Z,7.87
2022-11-29T08:18:47.072Z,8.13
2022-11-29T08:21:18.227Z,7.53
2022-11-29T08:23:48.037Z,8.30
2022-11-29T08:26:16.456Z,7.30
2022-11-29T08:28:45.026Z,7.83
2022-11-29T08:31:14.054Z,7.50
2022-11-29T08:33:43.778Z,8.30
2022-11-29T08:36:13.461Z,7.80
2022-11-29T08:38:41.776Z,7.70
2022-11-29T08:41:13.018Z,7.20
2022-11-29T08:43:41.352Z,7.97
2022-11-29T08:46:12.507Z,7.87
2022-11-29T08:48:45.142Z,7.97
2022-11-29T08:51:13.419Z,7.27
2022-11-29T08:53:43.587Z,7.00
2022-11-29T08:56:59.697Z,7.97
2022-11-29T08:59:02.513Z,6.73
2022-11-29T09:01:30.890Z,7.40
2022-11-29T09:04:03.163Z,7.07
2022-11-29T09:06:32.694Z,7.57
2022-11-29T09:09:01.439Z,7.17
2022-11-29T09:11:31.568Z,6.90
2022-11-29T09:14:01.432Z,7.23
2022-11-29T09:16:30.666Z,6.80
2022-11-29T09:18:59.221Z,7.00
2022-11-29T09:21:28.238Z,7.67
2022-11-29T09:23:59.327Z,6.63
2022-11-29T09:26:29.321Z,6.03
2022-11-29T09:29:01.309Z,6.60
2022-11-29T09:31:35.570Z,6.43
2022-11-29T09:34:03.965Z,6.37
2022-11-29T09:36:32.282Z,5.77
2022-11-29T09:39:02.721Z,6.20
2022-11-29T09:41:42.956Z,5.60
2022-11-29T09:44:18.431Z,5.73
2022-11-29T09:46:55.728Z,5.77
2022-11-29T09:49:53.632Z,5.63
2022-11-29T09:52:28.397Z,5.57
2022-11-29T09:55:00.302Z,5.67
2022-11-29T09:57:29.007Z,5.13
2022-11-29T09:59:59.562Z,5.20
2022-11-29T10:02:31.977Z,5.30
2022-11-29T10:05:02.859Z,5.17
2022-11-29T10:07:34.924Z,5.40
2022-11-29T10:10:05.006Z,5.03
2022-11-29T10:12:35.497Z,5.07
2022-11-29T10:15:09.255Z,4.87
2022-11-29T10:17:39.870Z,4.50
2022-11-29T10:20:12.944Z,4.77
2022-11-29T10:22:44.453Z,4.20
2022-11-29T10:25:19.130Z,4.60
2022-11-29T10:27:47.578Z,3.90
2022-11-29T10:30:18.028Z,4.47
2022-11-29T10:32:47.798Z,4.33
2022-11-29T10:35:16.999Z,4.30
2022-11-29T10:38:01.488Z,4.07
2022-11-29T10:40:35.044Z,4.33
2022-11-29T10:43:03.811Z,4.17
2022-11-29T10:45:35.618Z,4.23
2022-11-29T10:48:05.169Z,4.90
2022-11-29T10:50:34.990Z,4.40
2022-11-29T10:53:06.235Z,4.60
2022-11-29T10:55:37.860Z,4.10
2022-11-29T10:58:14.731Z,3.93
2022-11-29T11:00:58.028Z,4.10
2022-11-29T11:03:29.721Z,3.80
2022-11-29T11:05:59.783Z,4.20
2022-11-29T11:08:28.236Z,3.80
2022-11-29T11:11:01.760Z,3.97
2022-11-29T11:13:31.259Z,4.10
2022-11-29T11:16:09.441Z,4.20
2022-11-29T11:18:38.364Z,4.20
2022-11-29T11:21:09.367Z,4.20
2022-11-29T11:23:42.649Z,4.07
2022-11-29T11:26:12.713Z,3.90
2022-11-29T11:28:43.442Z,3.63
2022-11-29T11:31:13.329Z,3.70
2022-11-29T11:33:42.342Z,4.10
2022-11-29T11:36:13.493Z,3.40
2022-11-29T11:38:42.766Z,4.00
2022-11-29T11:41:45.983Z,3.93
2022-11-29T11:44:46.490Z,3.97
2022-11-29T11:47:17.783Z,4.33
2022-11-29T11:49:52.676Z,3.50
2022-11-29T11:52:22.283Z,3.53
2022-11-29T11:54:53.496Z,3.53
2022-11-29T11:57:22.393Z,3.90
2022-11-29T11:59:50.788Z,3.73
2022-11-29T12:02:39.181Z,3.90
2022-11-29T12:05:12.834Z,3.53
2022-11-29T12:08:07.449Z,3.13
2022-11-29T12:10:34.799Z,3.00
2022-11-29T12:13:03.246Z,3.10
2022-11-29T12:15:32.564Z,3.07
2022-11-29T12:18:04.506Z,3.40
2022-11-29T12:20:35.411Z,3.20
2022-11-29T12:23:25.196Z,2.83
2022-11-29T12:25:55.160Z,2.90
2022-11-29T12:28:25.523Z,3.10
2022-11-29T12:30:56.918Z,3.33
2022-11-29T12:33:32.680Z,3.23
2022-11-29T12:36:11.923Z,3.13
2022-11-29T12:38:56.324Z,3.27
2022-11-29T12:41:33.362Z,2.70
2022-11-29T12:44:06.590Z,3.30
2022-11-29T12:46:35.362Z,2.83
2022-11-29T12:49:09.493Z,3.60
2022-11-29T12:51:42.552Z,3.17
2022-11-29T12:54:24.827Z,3.00
2022-11-29T12:56:55.870Z,2.87
2022-11-29T12:59:31.426Z,2.70
2022-11-29T13:02:08.918Z,3.03
2022-11-29T13:04:40.949Z,3.13
2022-11-29T13:07:12.434Z,2.90
2022-11-29T13:09:54.485Z,3.03
2022-11-29T13:12:24.967Z,3.67
2022-11-29T13:14:56.060Z,3.60
2022-11-29T13:17:29.357Z,3.70
2022-11-29T13:19:59.853Z,3.50
2022-11-29T13:22:30.391Z,3.27
2022-11-29T13:25:00.630Z,3.43
2022-11-29T13:27:31.405Z,3.87
2022-11-29T13:30:00.181Z,3.57
2022-11-29T13:32:32.785Z,3.70
2022-11-29T13:35:04.108Z,4.10
2022-11-29T13:37:34.531Z,3.40
2022-11-29T13:40:08.648Z,4.40
2022-11-29T13:42:39.857Z,4.13
2022-11-29T13:45:14.647Z,3.53
2022-11-29T13:47:49.883Z,4.57
2022-11-29T13:50:40.325Z,4.63
2022-11-29T13:53:15.148Z,5.43
2022-11-29T13:55:50.336Z,5.23
2022-11-29T13:58:36.081Z,5.83
2022-11-29T14:01:07.747Z,4.40
2022-11-29T14:03:40.037Z,4.47
2022-11-29T14:06:21.338Z,4.67
2022-11-29T14:09:19.607Z,4.00
2022-11-29T14:11:50.241Z,3.60
2022-11-29T14:14:24.859Z,4.43
2022-11-29T14:16:54.761Z,4.97
2022-11-29T14:19:27.642Z,3.93
2022-11-29T14:22:33.148Z,4.37
2022-11-29T14:28:37.802Z,3.57
2022-11-29T14:31:06.478Z,3.33
2022-11-29T14:33:44.135Z,3.67
2022-11-29T14:36:39.841Z,3.50
2022-11-29T14:39:38.840Z,3.63
2022-11-29T14:42:17.299Z,3.50
2022-11-29T14:44:47.715Z,3.70
2022-11-29T14:47:24.283Z,3.43
2022-11-29T14:49:53.078Z,3.47
2022-11-29T14:52:26.237Z,3.70
2022-11-29T14:55:10.414Z,3.37
2022-11-29T14:58:15.253Z,3.37
2022-11-29T15:01:08.117Z,3.27
2022-11-29T15:03:48.264Z,3.50
2022-11-29T15:06:19.214Z,3.40
2022-11-29T15:08:56.031Z,3.77
2022-11-29T15:11:33.426Z,3.50
2022-11-29T15:14:05.181Z,4.40
2022-11-29T15:16:41.331Z,3.97
2022-11-29T15:19:38.784Z,3.73
2022-11-29T15:22:10.025Z,4.00
2022-11-29T15:24:51.583Z,3.47
2022-11-29T15:27:21.512Z,3.77
2022-11-29T15:29:50.666Z,3.80
2022-11-29T15:32:23.359Z,3.90
2022-11-29T15:34:52.241Z,3.77
2022-11-29T15:37:24.399Z,3.77
2022-11-29T15:40:02.387Z,3.67
2022-11-29T15:42:39.726Z,4.20
2022-11-29T15:45:33.615Z,4.33
2022-11-29T15:48:19.560Z,4.63
2022-11-29T15:50:54.499Z,4.20
2022-11-29T15:53:24.718Z,4.90
2022-11-29T15:55:53.733Z,5.27
2022-11-29T15:58:23.819Z,4.23
2022-11-29T16:00:52.240Z,4.10
2022-11-29T16:03:23.467Z,5.00
2022-11-29T16:05:53.883Z,4.60
2022-11-29T16:08:22.432Z,4.27
2022-11-29T16:10:53.173Z,4.50
2022-11-29T16:13:35.735Z,5.53
2022-11-29T16:16:10.416Z,5.37
2022-11-29T16:18:40.788Z,5.13
2022-11-29T16:21:09.253Z,5.27
2022-11-29T16:23:38.369Z,5.23
2022-11-29T16:26:11.360Z,5.40
2022-11-29T16:28:44.428Z,5.30
2022-11-29T16:31:18.079Z,5.50
2022-11-29T16:33:49.112Z,4.63
2022-11-29T16:36:18.962Z,5.60
2022-11-29T16:38:48.024Z,5.20
2022-11-29T16:41:31.557Z,5.90
2022-11-29T16:44:03.607Z,5.60
2022-11-29T16:46:39.272Z,6.47
2022-11-29T16:49:34.271Z,5.70
2022-11-29T16:52:02.895Z,5.73
2022-11-29T16:54:34.286Z,6.37
2022-11-29T16:57:04.651Z,5.83
2022-11-29T16:59:35.444Z,5.83
2022-11-29T17:02:03.945Z,5.70
2022-11-29T17:04:32.398Z,6.80
2022-11-29T17:07:01.108Z,6.30
2022-11-29T17:09:30.520Z,6.30
2022-11-29T17:12:00.051Z,7.23
2022-11-29T17:14:30.296Z,9.03
2022-11-29T17:17:03.385Z,7.53
2022-11-29T17:19:32.112Z,6.63
2022-11-29T17:22:00.770Z,5.73
2022-11-29T17:24:29.120Z,6.43
2022-11-29T17:26:57.499Z,6.50
2022-11-29T17:29:25.818Z,6.57
2022-11-29T17:31:54.184Z,6.43
2022-11-29T17:34:24.069Z,6.17
2022-11-29T17:36:52.542Z,6.70
2022-11-29T17:39:21.735Z,6.57
2022-11-29T17:41:50.111Z,6.70
2022-11-29T17:44:18.759Z,7.93
2022-11-29T17:46:47.052Z,6.97
2022-11-29T17:49:15.451Z,6.67
2022-11-29T17:51:53.480Z,7.13
2022-11-29T17:54:22.345Z,6.40
2022-11-29T17:56:50.901Z,6.63
2022-11-29T17:59:19.532Z,6.57
2022-11-29T18:01:48.318Z,6.17
2022-11-29T18:04:16.870Z,6.13
2022-11-29T18:06:50.357Z,6.27
2022-11-29T18:09:19.599Z,6.37
2022-11-29T18:11:49.973Z,6.50
2022-11-29T18:14:19.610Z,6.57
2022-11-29T18:16:48.103Z,7.27
2022-11-29T18:19:17.621Z,6.33
2022-11-29T18:21:47.528Z,6.80
2022-11-29T18:24:15.899Z,6.53
2022-11-29T18:26:44.809Z,6.20
2022-11-29T18:29:13.141Z,6.70
2022-11-29T18:31:42.700Z,6.37
2022-11-29T18:34:11.629Z,7.57
2022-11-29T18:36:43.084Z,7.63
2022-11-29T18:39:15.168Z,8.70
2022-11-29T18:41:43.868Z,8.60
2022-11-29T18:44:13.088Z,8.40
2022-11-29T18:46:43.127Z,6.90
2022-11-29T18:49:12.577Z,7.67
2022-11-29T18:51:42.351Z,8.27
2022-11-29T18:54:12.498Z,7.97
2022-11-29T18:56:40.943Z,7.73
2022-11-29T18:59:10.547Z,7.60
2022-11-29T19:01:41.285Z,7.37
2022-11-29T19:04:10.261Z,11.03
2022-11-29T19:06:39.971Z,11.23
2022-11-29T19:09:09.939Z,9.53
2022-11-29T19:11:39.821Z,9.97
2022-11-29T19:14:11.452Z,9.80
2022-11-29T19:16:40.860Z,8.63
2022-11-29T19:19:09.410Z,8.03
2022-11-29T19:21:39.781Z,8.57
2022-11-29T19:24:14.077Z,10.30
2022-11-29T19:26:45.677Z,10.30
2022-11-29T19:29:14.221Z,9.47
2022-11-29T19:31:42.854Z,8.60
2022-11-29T19:34:11.343Z,8.07
2022-11-29T19:36:43.337Z,6.77
2022-11-29T19:39:13.019Z,6.90
2022-11-29T19:41:41.592Z,6.80
2022-11-29T19:44:11.671Z,6.27
2022-11-29T19:46:40.932Z,5.87
2022-11-29T19:49:09.909Z,6.60
2022-11-29T19:51:38.238Z,6.57
2022-11-29T19:54:07.330Z,7.00
2022-11-29T19:56:35.693Z,6.50
2022-11-29T19:59:03.991Z,6.73
2022-11-29T20:01:40.646Z,6.47
2022-11-29T20:04:10.528Z,6.50
2022-11-29T20:06:38.977Z,6.67
2022-11-29T20:09:09.908Z,6.70
2022-11-29T20:11:38.393Z,6.20
2022-11-29T20:14:22.665Z,6.80
2022-11-29T20:16:58.948Z,6.07
2022-11-29T20:19:28.332Z,6.23
2022-11-29T20:21:56.733Z,6.23
2022-11-29T20:24:25.050Z,5.77
2022-11-29T20:26:53.501Z,6.00
2022-11-29T20:29:27.522Z,6.37
2022-11-29T20:31:57.333Z,6.33
2022-11-29T20:34:26.045Z,6.10
2022-11-29T20:37:08.083Z,6.60
2022-11-29T20:39:39.616Z,6.83
2022-11-29T20:42:22.132Z,7.93
2022-11-29T20:44:53.234Z,8.40
2022-11-29T20:47:25.716Z,7.43
2022-11-29T20:49:54.777Z,8.07
2022-11-29T20:52:32.719Z,8.87
2022-11-29T20:55:01.099Z,8.23
2022-11-29T20:57:29.801Z,9.43
2022-11-29T21:00:01.260Z,8.97
2022-11-29T21:02:31.102Z,10.13
2022-11-29T21:04:59.718Z,9.77
2022-11-29T21:07:29.309Z,7.83
2022-11-29T21:10:01.126Z,7.07
2022-11-29T21:12:30.791Z,6.77
2022-11-29T21:14:59.535Z,6.50
2022-11-29T21:17:33.345Z,6.23
2022-11-29T21:20:04.506Z,6.27
2022-11-29T21:22:39.935Z,5.57
2022-11-29T21:25:11.878Z,5.40
2022-11-29T21:27:40.811Z,6.17
2022-11-29T21:30:17.881Z,5.80
2022-11-29T21:32:47.200Z,5.87
2022-11-29T21:35:17.125Z,5.67
2022-11-29T21:37:45.541Z,5.93
2022-11-29T21:40:15.219Z,6.57
2022-11-29T21:42:43.767Z,6.17
2022-11-29T21:45:15.680Z,6.40
2022-11-29T21:47:44.471Z,5.30
2022-11-29T21:50:13.529Z,5.47
2022-11-29T21:52:44.473Z,5.63
2022-11-29T21:55:12.856Z,5.40
2022-11-29T21:57:41.153Z,5.80
2022-11-29T22:00:10.492Z,5.37
2022-11-29T22:02:38.883Z,5.83
2022-11-29T22:05:09.743Z,5.90
2022-11-29T22:07:38.340Z,4.83
2022-11-29T22:10:13.326Z,5.23
2022-11-29T22:12:49.468Z,5.37
2022-11-29T22:15:24.519Z,5.73
2022-11-29T22:17:54.214Z,5.37
2022-11-29T22:20:22.863Z,5.60
2022-11-29T22:22:55.738Z,5.27
2022-11-29T22:25:28.336Z,5.57
2022-11-29T22:27:56.657Z,5.73
2022-11-29T22:30:25.051Z,6.77
2022-11-29T22:32:53.688Z,6.77
2022-11-29T22:35:22.384Z,5.90
2022-11-29T22:37:50.750Z,6.67
2022-11-29T22:40:19.280Z,5.90
2022-11-29T22:42:49.061Z,5.93
2022-11-29T22:45:17.819Z,6.10
2022-11-29T22:47:46.831Z,6.03
2022-11-29T22:50:15.515Z,5.80
2022-11-29T22:52:43.913Z,5.30
2022-11-29T22:55:12.773Z,5.40
2022-11-29T22:57:41.125Z,5.60
2022-11-29T23:00:13.797Z,5.00
2022-11-29T23:02:42.201Z,5.03
2022-11-29T23:05:10.828Z,4.83
2022-11-29T23:07:39.300Z,5.50
2022-11-29T23:10:09.107Z,4.80
2022-11-29T23:12:37.876Z,5.47
2022-11-29T23:15:07.104Z,5.80
2022-11-29T23:17:36.831Z,4.63
2022-11-29T23:20:05.918Z,5.00
2022-11-29T23:22:39.251Z,5.87
2022-11-29T23:25:08.063Z,5.87
2022-11-29T23:27:36.461Z,7.20
2022-11-29T23:30:05.209Z,6.83
2022-11-29T23:32:33.583Z,7.20
2022-11-29T23:35:03.299Z,7.37
2022-11-29T23:37:31.676Z,6.93
2022-11-29T23:40:00.325Z,7.03
2022-11-29T23:42:28.668Z,6.90
2022-11-29T23:44:57.481Z,6.90
2022-11-29T23:47:25.750Z,6.83
2022-11-29T23:49:54.041Z,6.83
2022-11-29T23:52:24.202Z,6.70
2022-11-29T23:54:52.667Z,7.13
2022-11-29T23:57:21.149Z,7.40
2022-11-29T23:59:50.214Z,6.97
